Time;durP1;ratioP1;P1;durP2;ratioP2;P2;SDS_P1;SDS_P2;PMS_P1;PMS_P2;Temp;Humidity;BMP_temperature;BMP_pressure;BME280_temperature;BME280_humidity;BME280_pressure;Samples;Min_cycle;Max_cycle;Signal;HPM_P1;HPM_P2
2024/02/22 00:00:10;;;;;;;3.97;1.03;;;;;;;9.00;81.28;99936.50;6073461;23;20431;-67
2024/02/22 00:02:46;;;;;;;1.63;0.90;;;;;;;9.05;80.87;99929.41;6073003;23;20411;-68
2024/02/22 00:05:15;;;;;;;1.57;0.93;;;;;;;9.20;79.71;99928.31;6097969;23;20446;-66
2024/02/22 00:07:45;;;;;;;1.23;0.70;;;;;;;9.06;80.26;99920.28;6097284;23;20411;-67
2024/02/22 00:10:14;;;;;;;1.10;0.87;;;;;;;9.13;79.90;99915.69;6097631;23;20350;-67
2024/02/22 00:12:43;;;;;;;1.93;1.37;;;;;;;9.15;79.32;99910.88;6097629;23;20347;-67
2024/02/22 00:15:12;;;;;;;1.37;1.00;;;;;;;9.23;78.68;99908.97;6097180;23;20418;-66
2024/02/22 00:17:40;;;;;;;2.97;1.20;;;;;;;9.18;79.10;99898.00;6096752;23;20376;-68
2024/02/22 00:20:16;;;;;;;1.30;0.70;;;;;;;9.10;79.18;99891.81;6098801;23;20455;-68
2024/02/22 00:22:44;;;;;;;1.40;0.90;;;;;;;9.08;79.19;99883.13;6099611;23;20382;-67
2024/02/22 00:25:14;;;;;;;3.17;1.15;;;;;;;9.27;77.32;99878.63;6099181;23;20404;-67
2024/02/22 00:27:45;;;;;;;2.70;1.47;;;;;;;9.20;77.18;99874.34;6099612;23;20230;-68
2024/02/22 00:30:14;;;;;;;1.03;0.80;;;;;;;9.20;77.45;99866.22;6098132;23;20366;-67
2024/02/22 00:32:47;;;;;;;1.37;1.27;;;;;;;9.27;76.99;99861.59;6098461;23;20427;-67
2024/02/22 00:35:17;;;;;;;7.72;1.00;;;;;;;9.31;77.08;99852.00;6098203;23;20755;-67
2024/02/22 00:37:45;;;;;;;3.63;0.87;;;;;;;9.25;77.01;99842.91;6097859;23;20473;-66
2024/02/22 00:40:15;;;;;;;1.73;0.77;;;;;;;9.21;76.97;99836.31;6097639;23;20465;-68
2024/02/22 00:42:43;;;;;;;1.30;0.77;;;;;;;9.21;77.60;99830.91;6097601;23;20720;-66
2024/02/22 00:45:12;;;;;;;1.00;0.90;;;;;;;9.23;77.25;99823.44;6097546;23;20402;-66
2024/02/22 00:47:41;;;;;;;14.50;1.60;;;;;;;9.22;77.02;99815.53;6097403;23;20415;-67
2024/02/22 00:50:10;;;;;;;1.30;1.07;;;;;;;9.28;76.53;99809.28;6097222;23;20761;-67
2024/02/22 00:52:41;;;;;;;2.17;1.27;;;;;;;9.21;75.70;99811.19;6097080;23;20361;-69
2024/02/22 00:55:10;;;;;;;2.07;1.50;;;;;;;9.37;75.21;99807.94;6097281;23;20759;-68
2024/02/22 00:57:39;;;;;;;12.33;1.67;;;;;;;9.37;75.62;99797.16;6097171;23;20455;-66
2024/02/22 01:00:11;;;;;;;1.83;0.87;;;;;;;9.33;74.94;99798.63;6097442;23;20782;-67
2024/02/22 01:02:40;;;;;;;1.43;0.80;;;;;;;9.22;75.56;99783.97;6097423;23;20475;-68
2024/02/22 01:05:09;;;;;;;7.17;1.70;;;;;;;9.32;75.33;99783.47;6097264;23;20427;-67
2024/02/22 01:07:39;;;;;;;1.00;0.70;;;;;;;9.32;75.16;99778.09;6097176;23;20422;-68
2024/02/22 01:10:09;;;;;;;1.33;0.60;;;;;;;9.47;73.79;99778.56;6097290;23;20460;-66
2024/02/22 01:12:38;;;;;;;1.40;0.80;;;;;;;9.45;73.67;99772.56;6097470;23;20381;-68
2024/02/22 01:15:07;;;;;;;1.73;1.63;;;;;;;9.36;74.09;99758.50;6097194;23;20418;-68
2024/02/22 01:17:36;;;;;;;5.80;0.87;;;;;;;9.38;73.59;99759.13;6081570;23;20179;-67
2024/02/22 01:20:06;;;;;;;2.23;1.17;;;;;;;9.37;73.84;99762.03;6098374;23;20393;-68
2024/02/22 01:22:35;;;;;;;1.87;0.80;;;;;;;9.41;73.49;99755.16;6097682;23;20350;-68
2024/02/22 01:25:06;;;;;;;1.17;1.07;;;;;;;9.44;74.18;99760.13;6097794;23;20491;-68
2024/02/22 01:27:35;;;;;;;0.80;0.50;;;;;;;9.38;74.52;99750.19;6097525;23;20483;-68
2024/02/22 01:30:05;;;;;;;1.80;0.83;;;;;;;9.38;73.75;99728.59;6096766;23;20409;-68
2024/02/22 01:32:34;;;;;;;0.90;0.60;;;;;;;9.34;73.78;99722.84;6097064;23;20406;-67
2024/02/22 01:35:08;;;;;;;1.53;0.80;;;;;;;9.42;72.93;99719.84;6097028;23;20164;-66
2024/02/22 01:37:37;;;;;;;1.80;1.00;;;;;;;9.43;72.91;99704.47;6096956;23;20467;-68
2024/02/22 01:40:11;;;;;;;1.00;0.80;;;;;;;9.36;73.06;99703.69;6096894;23;20392;-67
2024/02/22 01:42:42;;;;;;;2.90;1.03;;;;;;;9.39;72.42;99692.47;6071134;23;20396;-67
2024/02/22 01:45:11;;;;;;;0.98;0.60;;;;;;;9.38;72.47;99698.91;6097088;23;20376;-66
2024/02/22 01:47:41;;;;;;;0.97;0.63;;;;;;;9.54;71.11;99692.91;6096334;23;20234;-68
2024/02/22 01:50:11;;;;;;;2.87;1.00;;;;;;;9.47;71.22;99692.16;6071085;23;20419;-67
2024/02/22 01:52:42;;;;;;;0.90;0.70;;;;;;;9.58;70.64;99681.41;6096633;23;20437;-67
2024/02/22 01:55:14;;;;;;;1.20;1.10;;;;;;;9.54;71.34;99679.41;6096526;23;20414;-67
2024/02/22 01:57:43;;;;;;;3.67;1.27;;;;;;;9.52;70.95;99674.25;6070848;23;20431;-67
2024/02/22 02:00:17;;;;;;;0.90;0.60;;;;;;;9.54;71.32;99672.13;6096512;23;20711;-67
2024/02/22 02:02:47;;;;;;;1.10;0.80;;;;;;;9.53;70.05;99656.16;6096686;23;20459;-68
2024/02/22 02:05:16;;;;;;;1.17;0.80;;;;;;;9.54;70.67;99647.00;6095619;23;20392;-66
2024/02/22 02:07:46;;;;;;;1.10;0.70;;;;;;;9.55;70.20;99643.25;6096231;23;20423;-67
2024/02/22 02:10:16;;;;;;;6.53;0.93;;;;;;;9.66;69.59;99638.97;6096423;23;20376;-68
2024/02/22 02:12:46;;;;;;;1.10;0.70;;;;;;;9.58;69.97;99632.00;6096424;23;20430;-68
2024/02/22 02:15:14;;;;;;;2.27;0.90;;;;;;;9.57;70.58;99630.34;6070969;23;20407;-67
2024/02/22 02:17:44;;;;;;;1.10;0.70;;;;;;;9.57;69.67;99622.25;6096176;23;20388;-67
2024/02/22 02:20:15;;;;;;;1.47;0.50;;;;;;;9.71;70.01;99610.22;6096963;23;20418;-66
2024/02/22 02:23:07;;;;;;;0.90;0.50;;;;;;;9.77;69.09;99601.22;6070950;23;20462;-67
2024/02/22 02:25:38;;;;;;;1.00;0.60;;;;;;;9.79;69.33;99596.41;6096607;23;20459;-70
2024/02/22 02:28:07;;;;;;;1.00;0.73;;;;;;;9.81;69.13;99588.91;6096458;23;20191;-68
2024/02/22 02:30:36;;;;;;;2.83;1.07;;;;;;;9.69;69.92;99574.50;6096415;23;20383;-66
2024/02/22 02:33:05;;;;;;;1.57;0.93;;;;;;;9.81;69.51;99572.69;6096724;23;20419;-67
2024/02/22 02:35:37;;;;;;;0.90;0.60;;;;;;;9.84;69.50;99566.81;6096841;23;20449;-67
2024/02/22 02:38:10;;;;;;;0.90;0.70;;;;;;;9.85;69.62;99557.66;6097360;23;20404;-68
2024/02/22 02:40:41;;;;;;;1.00;0.60;;;;;;;9.80;69.68;99552.13;6097650;23;20368;-68
2024/02/22 02:43:10;;;;;;;0.90;0.73;;;;;;;9.83;69.75;99543.56;6096671;23;20376;-67
2024/02/22 02:45:38;;;;;;;1.57;0.80;;;;;;;9.84;69.34;99537.09;6097082;23;20387;-67
2024/02/22 02:48:08;;;;;;;3.23;0.90;;;;;;;9.83;70.08;99532.75;6096937;23;20435;-68
2024/02/22 02:50:37;;;;;;;1.50;0.60;;;;;;;9.82;70.36;99520.31;6097289;23;20376;-66
2024/02/22 02:53:06;;;;;;;1.30;0.60;;;;;;;9.82;70.06;99514.09;6097099;23;20387;-67
2024/02/22 02:55:35;;;;;;;0.80;0.50;;;;;;;9.86;70.26;99512.56;6096501;23;20395;-69
2024/02/22 02:58:08;;;;;;;1.30;0.87;;;;;;;9.92;69.71;99507.03;6096019;23;20467;-67
2024/02/22 03:00:37;;;;;;;1.10;0.70;;;;;;;9.90;69.81;99490.25;6096007;23;20398;-68
2024/02/22 03:03:07;;;;;;;1.37;0.80;;;;;;;9.99;69.91;99483.44;6096225;23;20372;-66
2024/02/22 03:05:39;;;;;;;1.00;0.70;;;;;;;9.94;70.35;99479.78;6096240;23;20895;-67
2024/02/22 03:08:09;;;;;;;0.90;0.57;;;;;;;9.87;70.85;99473.69;6095943;23;20481;-67
2024/02/22 03:10:38;;;;;;;1.73;0.77;;;;;;;9.98;70.64;99471.00;6096114;23;20426;-67
2024/02/22 03:16:39;;;;;;;1.27;0.70;;;;;;;10.10;70.50;99464.78;6070543;23;20425;-68
2024/02/22 03:19:09;;;;;;;0.93;0.60;;;;;;;10.09;70.85;99463.13;6096043;23;20410;-67
2024/02/22 03:21:39;;;;;;;2.10;0.60;;;;;;;10.18;71.22;99461.75;6095924;23;20366;-69
2024/02/22 03:24:08;;;;;;;0.80;0.40;;;;;;;10.21;71.21;99467.53;6095913;23;20391;-68
2024/02/22 03:26:37;;;;;;;0.80;0.60;;;;;;;10.34;71.20;99463.78;6095861;23;20912;-67
2024/02/22 03:29:07;;;;;;;1.00;0.87;;;;;;;10.30;71.53;99440.97;6095880;23;20435;-66
2024/02/22 03:31:36;;;;;;;1.00;0.70;;;;;;;10.28;71.85;99451.19;6097290;23;20351;-67
2024/02/22 03:34:08;;;;;;;1.00;0.60;;;;;;;10.32;72.48;99445.06;6097759;23;20453;-66
2024/02/22 03:36:41;;;;;;;0.85;0.47;;;;;;;10.32;72.93;99438.84;6100719;23;20467;-67
2024/02/22 03:39:11;;;;;;;3.23;0.60;;;;;;;10.36;73.85;99432.72;6098937;23;20211;-67
2024/02/22 03:41:40;;;;;;;5.23;0.93;;;;;;;10.32;74.47;99422.63;6096293;23;20885;-67
2024/02/22 03:44:09;;;;;;;4.30;1.00;;;;;;;10.28;74.64;99421.44;6096476;23;20380;-68
2024/02/22 03:46:48;;;;;;;3.27;0.70;;;;;;;10.38;74.41;99418.97;6095960;23;20443;-66
2024/02/22 03:49:19;;;;;;;1.53;0.50;;;;;;;10.32;75.42;99411.81;6094980;23;20514;-67
2024/02/22 03:51:49;;;;;;;1.87;1.00;;;;;;;10.32;76.45;99412.63;6095093;23;20400;-67
2024/02/22 03:54:18;;;;;;;1.10;0.87;;;;;;;10.32;76.79;99415.34;6094984;23;20366;-68
2024/02/22 03:56:47;;;;;;;0.90;0.60;;;;;;;10.24;76.98;99404.06;6070149;23;20441;-66
2024/02/22 03:59:15;;;;;;;0.80;0.50;;;;;;;10.27;77.23;99403.56;6095450;23;20407;-68
2024/02/22 04:01:44;;;;;;;0.97;0.50;;;;;;;10.20;78.01;99398.31;6070547;23;20753;-68
2024/02/22 04:04:13;;;;;;;0.90;0.60;;;;;;;10.12;79.37;99389.72;6071360;23;20415;-67
2024/02/22 04:06:44;;;;;;;1.23;0.60;;;;;;;10.08;80.86;99383.09;6096579;23;20478;-68
2024/02/22 04:09:14;;;;;;;7.53;0.97;;;;;;;9.94;82.48;99386.06;6095777;23;20462;-67
2024/02/22 04:11:43;;;;;;;1.73;1.17;;;;;;;9.94;83.87;99398.72;6096465;23;20796;-68
2024/02/22 04:14:12;;;;;;;1.23;0.77;;;;;;;9.83;84.19;99378.75;6096388;23;20399;-66
2024/02/22 04:16:42;;;;;;;1.83;0.80;;;;;;;9.96;84.46;99392.06;6071059;23;20395;-67
2024/02/22 04:19:11;;;;;;;0.80;0.60;;;;;;;9.83;84.78;99375.22;6096334;23;20382;-66
2024/02/22 04:21:44;;;;;;;1.60;0.68;;;;;;;9.79;85.58;99374.03;6096054;23;20825;-66
2024/02/22 04:24:13;;;;;;;0.90;0.50;;;;;;;9.79;85.93;99368.66;6096352;23;20210;-67
2024/02/22 04:26:48;;;;;;;2.77;0.87;;;;;;;9.81;86.53;99370.06;6096118;23;20391;-68
2024/02/22 04:29:17;;;;;;;0.90;0.70;;;;;;;9.67;86.84;99359.72;6095864;23;20435;-68
2024/02/22 04:31:47;;;;;;;1.10;0.73;;;;;;;9.79;87.09;99358.66;6096211;23;20354;-67
2024/02/22 04:34:16;;;;;;;0.90;0.70;;;;;;;9.75;86.79;99352.09;6096724;23;20342;-68
2024/02/22 04:36:48;;;;;;;1.10;0.53;;;;;;;9.80;86.16;99346.81;6096780;23;20403;-67
2024/02/22 04:39:16;;;;;;;1.00;0.67;;;;;;;9.79;86.31;99342.47;6070239;23;20434;-66
2024/02/22 04:41:45;;;;;;;0.90;0.60;;;;;;;9.81;86.17;99334.13;6096047;23;20374;-67
2024/02/22 04:44:14;;;;;;;3.03;0.90;;;;;;;9.82;85.49;99341.19;6096249;23;20351;-67
2024/02/22 04:46:43;;;;;;;0.90;0.60;;;;;;;9.80;86.37;99336.00;6095705;23;20395;-67
2024/02/22 04:49:12;;;;;;;3.92;0.82;;;;;;;9.80;85.99;99327.91;6047964;23;1179348;-67
2024/02/22 04:51:41;;;;;;;1.93;0.80;;;;;;;9.75;86.27;99340.47;6097765;23;20156;-67
2024/02/22 04:54:11;;;;;;;1.20;0.83;;;;;;;9.76;86.66;99332.13;6097418;23;20362;-67
2024/02/22 04:56:40;;;;;;;1.10;0.77;;;;;;;9.78;87.12;99330.00;6097278;23;20379;-67
2024/02/22 04:59:10;;;;;;;2.10;0.70;;;;;;;9.72;87.72;99330.97;6099046;23;20374;-68
2024/02/22 05:01:39;;;;;;;1.60;0.80;;;;;;;9.75;87.95;99330.47;6097273;23;20373;-67
2024/02/22 05:04:11;;;;;;;0.80;0.50;;;;;;;9.69;88.47;99315.22;6097529;23;20368;-67
2024/02/22 05:06:40;;;;;;;1.10;0.60;;;;;;;9.78;88.52;99318.41;6097053;23;20423;-67
2024/02/22 05:09:12;;;;;;;1.67;0.63;;;;;;;9.63;89.22;99310.75;6097005;23;20455;-67
2024/02/22 05:11:47;;;;;;;1.20;0.60;;;;;;;9.67;89.40;99311.13;6097442;23;20355;-68
2024/02/22 05:14:17;;;;;;;1.65;0.85;;;;;;;9.63;89.48;99308.06;6097474;23;20152;-68
2024/02/22 05:16:46;;;;;;;0.90;0.55;;;;;;;9.62;89.72;99303.72;6097503;23;20156;-67
2024/02/22 05:19:15;;;;;;;1.80;0.87;;;;;;;9.56;90.80;99293.84;6096920;23;20195;-67
2024/02/22 05:21:44;;;;;;;1.58;1.48;;;;;;;9.63;90.87;99283.75;6096979;23;20391;-67
2024/02/22 05:24:13;;;;;;;0.90;0.60;;;;;;;9.55;91.45;99276.00;6096955;23;20172;-67
2024/02/22 05:26:42;;;;;;;0.95;0.65;;;;;;;9.60;91.88;99274.22;6097097;23;20544;-67
2024/02/22 05:29:12;;;;;;;1.55;0.75;;;;;;;9.50;92.27;99278.56;6096792;23;20187;-65
2024/02/22 05:31:41;;;;;;;1.07;0.80;;;;;;;9.54;92.70;99279.75;6097366;23;20228;-66
2024/02/22 05:34:10;;;;;;;1.20;0.90;;;;;;;9.64;92.73;99273.75;6097236;23;20442;-66
2024/02/22 05:36:39;;;;;;;1.43;1.23;;;;;;;9.55;93.51;99273.28;6097145;23;20191;-67
2024/02/22 05:39:08;;;;;;;1.40;0.70;;;;;;;9.50;94.22;99263.19;6071299;23;20423;-67
2024/02/22 05:41:37;;;;;;;3.70;0.83;;;;;;;9.45;94.86;99262.25;6097013;23;20936;-68
2024/02/22 05:44:06;;;;;;;1.93;0.80;;;;;;;9.40;95.67;99256.72;6097689;23;20398;-67
2024/02/22 05:46:36;;;;;;;0.90;0.50;;;;;;;9.45;95.17;99254.16;6096800;23;20428;-67
2024/02/22 05:49:06;;;;;;;1.83;0.73;;;;;;;9.34;96.11;99247.72;6074715;23;20455;-68
2024/02/22 05:51:35;;;;;;;0.80;0.50;;;;;;;9.22;97.79;99249.56;6106911;23;20377;-67
2024/02/22 05:54:05;;;;;;;1.23;1.13;;;;;;;9.18;98.85;99242.16;6097596;23;20554;-68
2024/02/22 05:56:34;;;;;;;1.40;1.30;;;;;;;9.27;98.59;99238.06;6071776;23;20168;-67
2024/02/22 05:59:03;;;;;;;1.00;0.68;;;;;;;9.23;98.89;99245.00;6097587;23;20191;-67
2024/02/22 06:01:32;;;;;;;1.00;0.70;;;;;;;9.18;99.88;99239.47;6097442;23;20171;-67
2024/02/22 06:04:03;;;;;;;1.90;0.57;;;;;;;9.11;100.00;99226.91;6096794;23;20243;-66
2024/02/22 06:06:32;;;;;;;2.85;0.88;;;;;;;9.12;100.00;99223.16;6096646;23;20235;-67
2024/02/22 06:09:02;;;;;;;2.20;0.70;;;;;;;9.11;100.00;99220.69;6096619;23;20187;-67
2024/02/22 06:11:31;;;;;;;0.90;0.50;;;;;;;9.04;100.00;99210.03;6096768;23;20199;-67
2024/02/22 06:14:00;;;;;;;0.90;0.60;;;;;;;9.10;100.00;99214.47;6096802;23;20249;-66
2024/02/22 06:16:29;;;;;;;1.25;1.00;;;;;;;9.12;100.00;99206.97;6096179;23;20176;-67
2024/02/22 06:19:15;;;;;;;1.60;0.70;;;;;;;9.02;100.00;99201.31;6096642;23;20716;-67
2024/02/22 06:21:43;;;;;;;8.77;0.80;;;;;;;9.03;100.00;99202.97;6096662;23;20151;-67
2024/02/22 06:24:12;;;;;;;0.93;0.70;;;;;;;9.13;100.00;99202.38;6096643;23;20214;-66
2024/02/22 06:26:41;;;;;;;0.80;0.60;;;;;;;9.07;100.00;99201.44;6096606;23;20232;-65
2024/02/22 06:29:11;;;;;;;1.10;0.80;;;;;;;9.14;100.00;99194.06;6096255;23;20187;-65
2024/02/22 06:31:40;;;;;;;0.90;0.60;;;;;;;9.08;100.00;99188.78;6096494;23;20466;-67
2024/02/22 06:34:09;;;;;;;0.90;0.60;;;;;;;9.13;100.00;99192.44;6096658;23;20156;-69
2024/02/22 06:36:39;;;;;;;1.20;0.70;;;;;;;9.15;100.00;99187.59;6096550;23;20174;-67
2024/02/22 06:39:09;;;;;;;0.90;0.60;;;;;;;9.08;100.00;99184.22;6095838;23;20187;-68
2024/02/22 06:41:38;;;;;;;2.38;1.33;;;;;;;9.18;100.00;99182.81;6096451;23;20364;-66
2024/02/22 06:44:07;;;;;;;1.80;1.50;;;;;;;9.21;100.00;99174.22;6096533;23;20167;-67
2024/02/22 06:46:36;;;;;;;0.90;0.60;;;;;;;9.14;100.00;99177.06;6096405;23;20163;-67
2024/02/22 06:49:05;;;;;;;2.92;1.15;;;;;;;9.12;100.00;99171.88;6096193;23;20432;-67
2024/02/22 06:51:34;;;;;;;1.10;0.68;;;;;;;9.16;100.00;99166.84;6096120;23;20168;-67
2024/02/22 06:54:04;;;;;;;0.90;0.60;;;;;;;9.08;100.00;99161.81;6096307;23;20164;-67
2024/02/22 06:56:33;;;;;;;1.48;0.88;;;;;;;9.12;100.00;99163.78;6096063;23;20156;-67
2024/02/22 06:59:02;;;;;;;1.35;0.70;;;;;;;9.03;100.00;99157.09;6095770;23;20190;-67
2024/02/22 07:01:33;;;;;;;1.00;0.70;;;;;;;8.97;100.00;99155.34;6095588;23;20171;-66
2024/02/22 07:04:02;;;;;;;1.10;0.98;;;;;;;8.93;100.00;99147.94;6096228;23;20163;-67
2024/02/22 07:06:31;;;;;;;1.00;0.80;;;;;;;8.97;100.00;99151.81;6096298;23;20148;-66
2024/02/22 07:09:02;;;;;;;1.55;0.98;;;;;;;9.07;100.00;99150.19;6096793;23;20215;-66
2024/02/22 07:11:32;;;;;;;1.00;0.60;;;;;;;9.11;100.00;99145.94;6097934;23;20159;-67
2024/02/22 07:18:21;;;;;;;0.88;0.68;;;;;;;9.05;100.00;99136.09;6097388;23;20422;-67
2024/02/22 07:20:50;;;;;;;1.50;0.90;;;;;;;9.06;100.00;99135.03;6097455;23;20152;-68
2024/02/22 07:23:19;;;;;;;1.93;0.67;;;;;;;9.19;100.00;99120.50;6097793;23;20164;-66
2024/02/22 07:25:48;;;;;;;1.00;0.90;;;;;;;9.08;100.00;99124.03;6097958;23;20713;-68
2024/02/22 07:28:20;;;;;;;2.38;0.80;;;;;;;9.09;100.00;99125.66;6097500;23;20398;-68
2024/02/22 07:30:49;;;;;;;1.73;0.93;;;;;;;8.92;100.00;99120.16;6097429;23;20568;-67
2024/02/22 07:33:18;;;;;;;1.00;0.50;;;;;;;9.11;100.00;99108.19;6098033;23;20167;-67
2024/02/22 07:35:47;;;;;;;3.43;0.70;;;;;;;9.16;100.00;99111.00;6097630;23;20492;-65
2024/02/22 07:38:16;;;;;;;1.02;0.85;;;;;;;9.05;100.00;99103.72;6097977;23;20407;-67
2024/02/22 07:40:45;;;;;;;1.90;0.75;;;;;;;9.02;100.00;99104.19;6097750;23;20183;-67
2024/02/22 07:43:14;;;;;;;0.90;0.73;;;;;;;9.03;100.00;99105.84;6096952;23;20586;-66
2024/02/22 07:45:44;;;;;;;1.27;1.17;;;;;;;8.96;100.00;99110.53;6097909;23;20601;-67
2024/02/22 07:48:13;;;;;;;2.25;0.90;;;;;;;9.01;100.00;99096.31;6096768;23;20214;-64
2024/02/22 07:50:42;;;;;;;1.30;0.80;;;;;;;9.02;100.00;99096.09;6096340;23;20258;-68
2024/02/22 07:53:11;;;;;;;1.92;0.95;;;;;;;9.01;100.00;99091.75;6096205;23;20163;-66
2024/02/22 07:55:40;;;;;;;0.90;0.60;;;;;;;8.95;100.00;99100.81;6095962;23;20168;-67
2024/02/22 07:58:10;;;;;;;2.10;1.90;;;;;;;8.99;100.00;99083.09;6095904;23;20258;-65
2024/02/22 08:00:39;;;;;;;1.98;0.90;;;;;;;9.04;100.00;99080.50;6096233;23;20167;-67
2024/02/22 08:03:09;;;;;;;1.10;0.70;;;;;;;8.93;100.00;99085.91;6100340;23;20609;-66
2024/02/22 08:05:38;;;;;;;0.90;0.80;;;;;;;8.83;100.00;99078.41;6098713;23;20162;-69
2024/02/22 08:08:07;;;;;;;1.55;1.02;;;;;;;9.06;100.00;99072.97;6096861;23;20183;-67
2024/02/22 08:10:37;;;;;;;1.10;0.97;;;;;;;9.16;100.00;99075.91;6071625;23;20187;-66
2024/02/22 08:13:06;;;;;;;1.77;1.30;;;;;;;8.99;100.00;99066.91;6097014;23;20386;-67
2024/02/22 08:15:36;;;;;;;1.75;0.85;;;;;;;9.07;100.00;99071.94;6098856;23;20609;-69
2024/02/22 08:18:05;;;;;;;1.10;0.75;;;;;;;9.05;100.00;99063.25;6100961;23;20207;-66
2024/02/22 08:20:37;;;;;;;0.95;0.65;;;;;;;9.01;100.00;99059.38;6100550;23;20175;-68
2024/02/22 08:23:08;;;;;;;0.90;0.70;;;;;;;9.07;100.00;99063.84;6098578;23;20170;-67
2024/02/22 08:25:37;;;;;;;1.42;0.80;;;;;;;9.12;100.00;99055.84;6096307;23;20156;-66
2024/02/22 08:28:08;;;;;;;0.80;0.50;;;;;;;8.98;100.00;99056.34;6096224;23;20187;-66
2024/02/22 08:30:37;;;;;;;1.35;1.10;;;;;;;9.14;100.00;99053.75;6096377;23;20640;-66
2024/02/22 08:33:06;;;;;;;2.25;1.45;;;;;;;9.15;100.00;99055.38;6096557;23;20553;-66
2024/02/22 08:35:37;;;;;;;1.45;0.95;;;;;;;9.09;100.00;99050.94;6096180;23;20660;-67
2024/02/22 08:38:07;;;;;;;1.30;0.70;;;;;;;9.13;100.00;99049.41;6096159;23;20215;-67
2024/02/22 08:40:36;;;;;;;1.20;0.77;;;;;;;9.14;100.00;99042.97;6096579;23;20194;-66
2024/02/22 08:43:08;;;;;;;2.30;0.80;;;;;;;9.27;100.00;99038.34;6097673;23;20156;-67
2024/02/22 08:45:38;;;;;;;0.90;0.70;;;;;;;9.27;100.00;99041.03;6097813;23;20246;-65
2024/02/22 08:48:07;;;;;;;1.00;0.90;;;;;;;9.33;100.00;99040.09;6097382;23;20190;-65
2024/02/22 08:50:39;;;;;;;0.98;0.70;;;;;;;9.26;100.00;99032.13;6072304;23;20431;-65
2024/02/22 08:53:08;;;;;;;1.30;1.00;;;;;;;9.15;100.00;99032.97;6097622;23;20167;-66
2024/02/22 08:55:37;;;;;;;1.58;1.05;;;;;;;9.15;100.00;99028.38;6097479;23;20152;-65
2024/02/22 08:58:06;;;;;;;1.20;1.08;;;;;;;9.13;100.00;99030.53;6072196;23;20198;-66
2024/02/22 09:00:35;;;;;;;1.08;0.98;;;;;;;9.15;100.00;99025.69;6097815;23;20558;-66
2024/02/22 09:03:04;;;;;;;0.85;0.63;;;;;;;9.03;100.00;99027.59;6097419;23;20239;-65
2024/02/22 09:05:33;;;;;;;1.38;1.10;;;;;;;8.92;100.00;99025.75;6097173;23;20568;-66
2024/02/22 09:08:04;;;;;;;1.38;0.93;;;;;;;8.96;100.00;99023.38;6097064;23;20648;-65
2024/02/22 09:10:33;;;;;;;1.27;0.90;;;;;;;8.98;100.00;99015.88;6097207;23;20636;-65
2024/02/22 09:13:02;;;;;;;0.90;0.70;;;;;;;9.05;100.00;99017.38;6071717;23;20203;-65
2024/02/22 09:15:31;;;;;;;0.95;0.60;;;;;;;9.14;100.00;99015.16;6097322;23;20156;-65
2024/02/22 09:18:00;;;;;;;0.98;0.80;;;;;;;9.13;100.00;99003.53;6097116;23;20266;-66
2024/02/22 09:20:57;;;;;;;1.17;0.80;;;;;;;9.18;100.00;98996.59;6097051;23;20171;-66
2024/02/22 09:23:27;;;;;;;1.17;0.68;;;;;;;9.12;100.00;98995.66;6097280;23;20152;-65
2024/02/22 09:25:56;;;;;;;1.70;1.43;;;;;;;9.31;100.00;99002.53;6097149;23;20156;-66
2024/02/22 09:28:25;;;;;;;1.20;1.10;;;;;;;9.25;100.00;98997.28;6097056;23;20927;-66
2024/02/22 09:30:54;;;;;;;1.30;0.70;;;;;;;9.19;100.00;98990.16;6097060;23;20659;-67
2024/02/22 09:33:23;;;;;;;1.25;0.63;;;;;;;9.25;100.00;98995.38;6097881;23;20167;-66
2024/02/22 09:35:53;;;;;;;1.40;0.98;;;;;;;9.23;100.00;98991.31;6097629;23;20163;-66
2024/02/22 09:38:22;;;;;;;1.40;1.20;;;;;;;9.36;100.00;98991.84;6096839;23;20203;-66
2024/02/22 09:40:52;;;;;;;1.20;0.82;;;;;;;9.31;100.00;98990.91;6097246;23;20372;-66
2024/02/22 09:43:22;;;;;;;1.40;1.30;;;;;;;9.43;100.00;98995.25;6097388;23;20179;-66
2024/02/22 09:45:50;;;;;;;0.90;0.63;;;;;;;9.50;100.00;98989.69;6097133;23;20620;-66
2024/02/22 09:48:19;;;;;;;0.80;0.60;;;;;;;9.55;100.00;98985.19;6096810;23;20949;-65
2024/02/22 09:50:50;;;;;;;2.45;1.25;;;;;;;9.62;100.00;98982.34;6096677;23;20172;-68
2024/02/22 09:53:20;;;;;;;1.00;0.75;;;;;;;9.48;100.00;98989.13;6096663;23;20592;-64
2024/02/22 09:55:49;;;;;;;1.10;0.80;;;;;;;9.50;100.00;98978.88;6071462;23;20176;-66
2024/02/22 09:58:21;;;;;;;2.25;2.05;;;;;;;9.47;100.00;98982.06;6096824;23;20223;-65
2024/02/22 10:00:50;;;;;;;2.10;1.00;;;;;;;9.78;100.00;98978.06;6097038;23;20180;-66
2024/02/22 10:03:31;;;;;;;1.23;0.90;;;;;;;9.65;100.00;98967.53;6097380;23;20479;-66
2024/02/22 10:06:00;;;;;;;0.93;0.80;;;;;;;9.66;100.00;98985.38;6099200;23;20156;-67
2024/02/22 10:08:29;;;;;;;0.80;0.57;;;;;;;9.60;100.00;98977.19;6101159;23;20418;-65
2024/02/22 10:11:07;;;;;;;1.10;0.80;;;;;;;9.82;100.00;98979.19;6102657;23;20419;-66
2024/02/22 10:13:38;;;;;;;1.25;1.00;;;;;;;9.70;100.00;98967.63;6100727;23;20403;-66
2024/02/22 10:16:11;;;;;;;0.90;0.70;;;;;;;9.95;100.00;98966.19;6098300;23;20154;-65
2024/02/22 10:18:41;;;;;;;2.97;1.00;;;;;;;9.72;100.00;98969.03;6096787;23;20733;-66
2024/02/22 10:21:14;;;;;;;2.28;1.15;;;;;;;9.88;100.00;98962.00;6096729;23;20422;-66
2024/02/22 10:23:44;;;;;;;2.30;1.50;;;;;;;9.95;100.00;98958.09;6096646;23;20155;-66
2024/02/22 10:26:13;;;;;;;1.30;0.75;;;;;;;9.96;100.00;98959.75;6070970;23;20494;-66
2024/02/22 10:28:43;;;;;;;1.33;1.13;;;;;;;9.94;100.00;98956.44;6096465;23;20187;-65
2024/02/22 10:31:14;;;;;;;1.10;1.00;;;;;;;10.18;100.00;98951.72;6096525;23;20757;-65
2024/02/22 10:33:42;;;;;;;1.70;1.02;;;;;;;10.12;100.00;98951.88;6096516;23;20423;-66
2024/02/22 10:36:12;;;;;;;1.30;0.90;;;;;;;10.29;100.00;98940.00;6097698;23;20218;-67
2024/02/22 10:38:42;;;;;;;1.30;1.00;;;;;;;10.32;100.00;98935.97;6096413;23;20404;-66
2024/02/22 10:41:12;;;;;;;1.37;0.80;;;;;;;10.33;100.00;98932.22;6096988;23;20927;-65
2024/02/22 10:43:43;;;;;;;2.30;1.00;;;;;;;10.18;100.00;98935.50;6097680;23;20387;-65
2024/02/22 10:46:12;;;;;;;1.43;0.87;;;;;;;10.39;100.00;98925.81;6096480;23;20830;-66
2024/02/22 10:48:50;;;;;;;1.20;0.90;;;;;;;10.32;100.00;98919.75;6096124;23;20429;-66
2024/02/22 10:51:22;;;;;;;1.13;0.60;;;;;;;10.47;100.00;98909.16;6096400;23;20416;-66
2024/02/22 10:53:54;;;;;;;1.00;0.90;;;;;;;10.66;100.00;98915.91;6071204;23;20457;-66
2024/02/22 10:56:23;;;;;;;1.93;1.00;;;;;;;11.01;100.00;98906.63;6096538;23;20372;-66
2024/02/22 10:58:59;;;;;;;1.00;0.67;;;;;;;11.04;100.00;98900.69;6070902;23;20510;-66
2024/02/22 11:01:29;;;;;;;1.07;0.80;;;;;;;11.21;100.00;98896.03;6096580;23;20397;-64
2024/02/22 11:03:59;;;;;;;1.40;0.90;;;;;;;11.34;100.00;98880.19;6096190;23;20854;-65
2024/02/22 11:06:37;;;;;;;5.33;0.90;;;;;;;11.64;100.00;98868.81;6096396;23;20355;-66
2024/02/22 11:09:17;;;;;;;1.40;1.13;;;;;;;11.82;100.00;98867.63;6096443;23;20418;-65
2024/02/22 11:11:49;;;;;;;1.23;0.70;;;;;;;11.61;100.00;98863.94;6097186;23;20415;-67
2024/02/22 11:14:28;;;;;;;1.20;1.00;;;;;;;11.54;100.00;98862.50;6096649;23;20372;-67
2024/02/22 11:17:05;;;;;;;1.00;0.80;;;;;;;11.44;100.00;98854.28;6096694;23;20811;-65
2024/02/22 11:19:35;;;;;;;0.80;0.60;;;;;;;11.47;100.00;98851.88;6096053;23;20406;-65
2024/02/22 11:22:14;;;;;;;1.40;1.00;;;;;;;11.48;100.00;98845.38;6096101;23;20420;-66
2024/02/22 11:24:49;;;;;;;1.57;0.80;;;;;;;11.28;100.00;98845.19;6096241;23;20434;-66
2024/02/22 11:27:19;;;;;;;1.77;1.03;;;;;;;11.51;100.00;98842.16;6070984;23;20806;-65
2024/02/22 11:29:50;;;;;;;1.80;0.93;;;;;;;11.56;100.00;98839.50;6096453;23;20409;-67
2024/02/22 11:32:19;;;;;;;0.90;0.73;;;;;;;11.66;100.00;98830.66;6070709;23;20431;-67
2024/02/22 11:34:53;;;;;;;1.43;1.03;;;;;;;11.79;100.00;98823.97;6096449;23;20692;-66
2024/02/22 11:37:22;;;;;;;1.97;1.20;;;;;;;11.87;100.00;98815.34;6096594;23;20695;-66
2024/02/22 11:39:58;;;;;;;1.00;0.70;;;;;;;11.77;100.00;98814.22;6096300;23;20495;-68
2024/02/22 11:42:28;;;;;;;1.40;1.00;;;;;;;11.75;100.00;98810.97;6098871;23;20389;-68
2024/02/22 11:45:09;;;;;;;1.20;0.80;;;;;;;11.64;100.00;98802.97;6097621;23;20405;-67
2024/02/22 11:47:37;;;;;;;1.23;0.77;;;;;;;11.66;100.00;98800.84;6097296;23;20410;-67
2024/02/22 11:50:08;;;;;;;1.20;0.50;;;;;;;11.57;100.00;98800.47;6096854;23;20407;-67
2024/02/22 11:52:37;;;;;;;1.67;1.20;;;;;;;11.49;100.00;98783.91;6096450;23;20390;-67
2024/02/22 11:55:10;;;;;;;1.30;1.07;;;;;;;11.69;100.00;98801.13;6096320;23;20350;-67
2024/02/22 11:57:40;;;;;;;2.40;1.00;;;;;;;11.66;100.00;98792.72;6096044;23;20350;-67